Papere Vagabonde

Aviosuperficie Caposile LIKI

Pista 04


Pista 22


Le immagini vengono aggiornate ogni minuto

METAR LIPZ

LIPZ 180150Z 03011KT CAVOK 26/20 Q1015 NOSIG

TAF LIPZ 172300Z 1800/1906 04010KT 9999 FEW060 
  BECMG 1810/1812 14007KT 
  BECMG 1821/1823 03010KT



      

Alba: 05:38
Tramonto: 20:53

LOW LEVEL SIGWX CHART

ALL WEATHER DATA